createdAt,value
2019-04-20T00:01:05.342Z,41.08
2019-04-20T00:03:09.731Z,36.20
2019-04-20T00:05:15.038Z,33.23
2019-04-20T00:07:24.651Z,36.65
2019-04-20T00:09:29.865Z,35.88
2019-04-20T00:11:41.650Z,39.18
2019-04-20T00:13:47.665Z,37.08
2019-04-20T00:15:42.947Z,34.67
2019-04-20T00:17:52.407Z,38.40
2019-04-20T00:19:54.584Z,40.45
2019-04-20T00:22:06.673Z,37.80
2019-04-20T00:24:24.744Z,38.78
2019-04-20T00:26:52.174Z,37.67
2019-04-20T00:28:45.667Z,38.17
2019-04-20T00:30:55.750Z,34.45
2019-04-20T00:32:54.686Z,36.88
2019-04-20T00:34:48.873Z,34.35
2019-04-20T00:36:52.372Z,32.83
2019-04-20T00:38:59.505Z,33.98
2019-04-20T00:41:05.588Z,39.08
2019-04-20T00:43:08.629Z,30.97
2019-04-20T00:45:19.079Z,36.83
2019-04-20T00:47:31.773Z,32.75
2019-04-20T00:49:39.939Z,37.40
2019-04-20T00:51:46.614Z,35.28
2019-04-20T00:53:40.858Z,34.70
2019-04-20T00:55:40.504Z,30.02
2019-04-20T00:57:50.463Z,36.08
2019-04-20T01:00:11.021Z,33.85
2019-04-20T01:02:15.605Z,33.78
2019-04-20T01:04:20.509Z,32.13
2019-04-20T01:06:35.799Z,36.95
2019-04-20T01:08:23.402Z,35.55
2019-04-20T01:10:35.365Z,33.13
2019-04-20T01:12:35.588Z,32.88
2019-04-20T01:14:47.046Z,35.28
2019-04-20T01:16:52.851Z,37.58
2019-04-20T01:18:49.978Z,36.60
2019-04-20T01:20:59.113Z,32.25
2019-04-20T01:23:06.172Z,38.08
2019-04-20T01:25:16.525Z,36.55
2019-04-20T01:27:31.109Z,41.13
2019-04-20T01:29:29.636Z,38.78
2019-04-20T01:31:33.625Z,45.90
2019-04-20T01:33:40.410Z,41.65
2019-04-20T01:35:52.086Z,37.65
2019-04-20T01:38:05.743Z,48.38
2019-04-20T01:39:52.039Z,44.03
2019-04-20T01:41:51.985Z,50.08
2019-04-20T01:43:56.333Z,45.43
2019-04-20T01:46:08.121Z,46.63
2019-04-20T01:48:07.007Z,50.95
2019-04-20T01:50:16.672Z,42.27
2019-04-20T01:52:27.073Z,44.23
2019-04-20T01:54:48.468Z,43.70
2019-04-20T01:56:43.761Z,47.13
2019-04-20T01:59:02.617Z,45.48
2019-04-20T02:00:51.165Z,47.48
2019-04-20T02:02:59.280Z,47.58
2019-04-20T02:05:11.357Z,47.23
2019-04-20T02:07:08.685Z,47.10
2019-04-20T02:09:18.703Z,42.30
2019-04-20T02:11:25.036Z,48.50
2019-04-20T02:13:27.978Z,46.77
2019-04-20T02:15:37.914Z,52.10
2019-04-20T02:17:40.745Z,49.50
2019-04-20T02:20:01.000Z,57.17
2019-04-20T02:21:59.095Z,49.85
2019-04-20T02:23:56.365Z,48.20
2019-04-20T02:25:57.053Z,48.10
2019-04-20T02:28:20.337Z,51.77
2019-04-20T02:30:51.763Z,47.62
2019-04-20T02:35:07.703Z,50.78
2019-04-20T02:41:38.055Z,62.83
2019-04-20T02:43:53.581Z,64.60
2019-04-20T02:50:00.221Z,59.42
2019-04-20T02:54:15.061Z,59.60
2019-04-20T02:56:12.319Z,58.38
2019-04-20T02:58:18.705Z,63.68
2019-04-20T03:00:21.587Z,54.13
2019-04-20T03:02:17.028Z,55.33
2019-04-20T03:04:06.904Z,55.48
2019-04-20T03:06:19.827Z,49.85
2019-04-20T03:08:33.097Z,50.83
2019-04-20T03:10:50.843Z,51.65
2019-04-20T03:12:47.439Z,50.95
2019-04-20T03:14:44.301Z,48.80
2019-04-20T03:16:55.027Z,55.90
2019-04-20T03:18:58.771Z,48.80
2019-04-20T03:21:11.232Z,54.23
2019-04-20T03:23:23.480Z,53.10
2019-04-20T03:25:28.506Z,50.90
2019-04-20T03:27:26.179Z,52.03
2019-04-20T03:29:41.249Z,53.42
2019-04-20T03:32:35.590Z,52.10
2019-04-20T03:34:38.435Z,52.13
2019-04-20T03:36:39.773Z,49.55
2019-04-20T03:38:36.308Z,54.63
2019-04-20T03:40:34.671Z,52.10
2019-04-20T03:42:26.693Z,53.40
2019-04-20T03:44:34.022Z,49.98
2019-04-20T03:46:44.935Z,55.40
2019-04-20T03:49:02.810Z,57.85
2019-04-20T03:51:07.467Z,49.98
2019-04-20T03:53:19.259Z,52.08
2019-04-20T03:55:26.102Z,50.83
2019-04-20T03:57:34.463Z,52.03
2019-04-20T03:59:39.155Z,54.48
2019-04-20T04:02:09.313Z,52.40
2019-04-20T04:04:01.450Z,52.40
2019-04-20T04:06:11.742Z,56.13
2019-04-20T04:08:12.219Z,55.00
2019-04-20T04:10:21.994Z,56.37
2019-04-20T04:12:50.148Z,52.25
2019-04-20T04:14:55.682Z,54.38
2019-04-20T04:17:02.298Z,49.38
2019-04-20T04:19:15.836Z,53.30
2019-04-20T04:21:21.230Z,66.62
2019-04-20T04:23:38.096Z,53.90
2019-04-20T04:25:39.767Z,56.15
2019-04-20T04:27:52.217Z,61.55
2019-04-20T04:30:00.916Z,57.15
2019-04-20T04:32:17.397Z,54.93
2019-04-20T04:34:12.458Z,60.45
2019-04-20T04:36:12.953Z,54.75
2019-04-20T04:38:19.421Z,56.85
2019-04-20T04:40:31.716Z,56.10
2019-04-20T04:42:39.235Z,58.35
2019-04-20T04:44:30.307Z,53.23
2019-04-20T04:46:24.769Z,56.88
2019-04-20T04:48:34.984Z,56.80
2019-04-20T04:50:44.618Z,59.63
2019-04-20T04:52:52.188Z,50.38
2019-04-20T04:54:53.713Z,54.25
2019-04-20T04:56:52.477Z,56.90
2019-04-20T04:58:56.594Z,61.20
2019-04-20T05:01:05.672Z,53.98
2019-04-20T05:03:23.116Z,52.98
2019-04-20T05:05:36.975Z,59.40
2019-04-20T05:07:45.134Z,60.17
2019-04-20T05:09:33.996Z,59.88
2019-04-20T05:11:38.598Z,56.73
2019-04-20T05:13:52.339Z,57.33
2019-04-20T05:16:00.400Z,62.25
2019-04-20T05:18:12.925Z,57.33
2019-04-20T05:20:17.783Z,55.12
2019-04-20T05:22:27.581Z,55.52
2019-04-20T05:24:28.843Z,57.23
2019-04-20T05:26:45.973Z,54.80
2019-04-20T05:28:45.035Z,63.87
2019-04-20T05:30:48.682Z,56.98
2019-04-20T05:32:59.067Z,58.80
2019-04-20T05:35:16.424Z,56.60
2019-04-20T05:37:29.813Z,59.80
2019-04-20T05:41:31.068Z,60.73
2019-04-20T05:43:46.789Z,56.35
2019-04-20T05:45:51.138Z,54.00
2019-04-20T05:47:59.009Z,54.75
2019-04-20T05:50:01.254Z,51.50
2019-04-20T05:52:31.624Z,56.70
2019-04-20T05:54:23.447Z,60.90
2019-04-20T05:56:31.703Z,53.52
2019-04-20T05:58:32.735Z,56.30
2019-04-20T06:00:40.569Z,56.25
2019-04-20T06:02:45.122Z,55.48
2019-04-20T06:05:02.197Z,54.65
2019-04-20T06:07:01.710Z,54.18
2019-04-20T06:09:05.694Z,57.70
2019-04-20T06:11:12.972Z,52.78
2019-04-20T06:13:22.633Z,59.33
2019-04-20T06:15:43.260Z,52.15
2019-04-20T06:18:02.495Z,49.03
2019-04-20T06:20:12.521Z,47.95
2019-04-20T06:22:31.031Z,50.35
2019-04-20T06:24:42.110Z,48.02
2019-04-20T06:28:49.929Z,40.63
2019-04-20T06:31:10.614Z,39.08
2019-04-20T06:34:11.383Z,37.73
2019-04-20T06:36:07.577Z,37.30
2019-04-20T06:38:10.774Z,36.53
2019-04-20T06:40:23.952Z,31.90
2019-04-20T06:44:24.464Z,32.38
2019-04-20T06:46:22.265Z,33.13
2019-04-20T06:48:36.981Z,32.88
2019-04-20T06:50:32.601Z,35.85
2019-04-20T06:52:52.360Z,29.37
2019-04-20T06:55:03.056Z,29.67
2019-04-20T06:57:15.081Z,33.38
2019-04-20T06:59:29.084Z,34.98
2019-04-20T07:01:25.133Z,34.33
2019-04-20T07:03:49.412Z,34.18
2019-04-20T07:05:31.599Z,34.78
2019-04-20T07:07:43.425Z,35.43
2019-04-20T07:10:05.054Z,43.25
2019-04-20T07:11:50.456Z,36.30
2019-04-20T07:13:48.207Z,35.80
2019-04-20T07:16:18.330Z,36.53
2019-04-20T07:18:24.532Z,31.12
2019-04-20T07:20:39.193Z,35.15
2019-04-20T07:22:38.888Z,34.65
2019-04-20T07:24:53.181Z,44.35
2019-04-20T07:26:59.067Z,35.15
2019-04-20T07:28:59.293Z,36.28
2019-04-20T07:31:03.047Z,35.05
2019-04-20T07:33:20.018Z,32.90
2019-04-20T07:35:19.756Z,32.50
2019-04-20T07:39:32.772Z,30.08
2019-04-20T07:42:00.386Z,28.83
2019-04-20T07:43:52.994Z,29.37
2019-04-20T07:45:48.968Z,25.08
2019-04-20T07:48:07.481Z,30.75
2019-04-20T07:50:03.811Z,30.52
2019-04-20T07:51:50.748Z,30.12
2019-04-20T07:54:24.492Z,33.75
2019-04-20T07:56:23.643Z,28.98
2019-04-20T07:58:19.794Z,32.10
2019-04-20T08:00:44.863Z,27.52
2019-04-20T08:03:03.004Z,26.00
2019-04-20T08:04:59.535Z,25.45
2019-04-20T08:06:58.533Z,28.12
2019-04-20T08:09:17.159Z,26.87
2019-04-20T08:11:23.233Z,34.13
2019-04-20T08:13:42.085Z,34.75
2019-04-20T08:19:45.648Z,33.05
2019-04-20T08:21:52.982Z,28.55
2019-04-20T08:23:55.762Z,29.27
2019-04-20T08:25:56.960Z,24.80
2019-04-20T08:27:55.095Z,34.33
2019-04-20T08:30:20.484Z,29.48
2019-04-20T08:32:28.060Z,26.90
2019-04-20T08:34:43.021Z,24.87
2019-04-20T08:36:53.946Z,30.37
2019-04-20T08:41:00.324Z,26.87
2019-04-20T08:43:15.134Z,21.97
2019-04-20T08:45:07.245Z,24.92
2019-04-20T08:47:24.204Z,26.90
2019-04-20T08:49:25.395Z,20.80
2019-04-20T08:51:26.129Z,25.92
2019-04-20T08:53:33.278Z,23.15
2019-04-20T08:55:33.411Z,25.32
2019-04-20T08:57:24.591Z,20.65
2019-04-20T08:59:28.933Z,22.65
2019-04-20T09:01:35.846Z,25.08
2019-04-20T09:03:51.235Z,24.65
2019-04-20T09:05:55.335Z,25.57
2019-04-20T09:08:02.416Z,25.35
2019-04-20T09:10:25.291Z,22.77
2019-04-20T09:12:23.231Z,16.05
2019-04-20T09:14:21.738Z,23.45
2019-04-20T09:16:35.703Z,19.10
2019-04-20T09:18:49.345Z,19.42
2019-04-20T09:20:52.869Z,18.77
2019-04-20T09:23:18.620Z,23.05
2019-04-20T09:25:48.446Z,17.42
2019-04-20T09:27:29.180Z,18.98
2019-04-20T09:29:37.167Z,18.75
2019-04-20T09:31:50.228Z,17.07
2019-04-20T09:34:14.328Z,13.98
2019-04-20T09:36:21.037Z,14.98
2019-04-20T09:38:28.774Z,14.38
2019-04-20T09:40:34.983Z,21.95
2019-04-20T09:42:23.962Z,15.75
2019-04-20T09:44:31.411Z,17.27
2019-04-20T09:46:41.261Z,14.65
2019-04-20T09:48:52.445Z,16.10
2019-04-20T09:51:19.245Z,16.93
2019-04-20T09:53:14.333Z,20.20
2019-04-20T09:55:23.230Z,14.93
2019-04-20T09:57:33.413Z,14.85
2019-04-20T09:59:40.097Z,17.60
2019-04-20T10:01:36.736Z,18.17
2019-04-20T10:03:31.694Z,15.78
2019-04-20T10:05:37.850Z,16.65
2019-04-20T10:07:47.278Z,16.12
2019-04-20T10:09:55.797Z,16.60
2019-04-20T10:11:59.794Z,21.05
2019-04-20T10:14:04.006Z,17.98
2019-04-20T10:16:08.088Z,16.00
2019-04-20T10:18:12.110Z,15.23
2019-04-20T10:20:24.417Z,18.52
2019-04-20T10:22:22.535Z,16.20
2019-04-20T10:24:26.595Z,15.40
2019-04-20T10:26:30.566Z,13.68
2019-04-20T10:28:34.588Z,13.48
2019-04-20T10:30:38.789Z,15.45
2019-04-20T10:32:45.602Z,13.45
2019-04-20T10:34:48.560Z,13.25
2019-04-20T10:37:04.080Z,16.32
2019-04-20T10:39:10.719Z,16.50
2019-04-20T10:41:28.381Z,12.37
2019-04-20T10:43:21.773Z,19.98
2019-04-20T10:45:26.787Z,12.03
2019-04-20T10:47:30.821Z,11.20
2019-04-20T10:49:35.335Z,15.60
2019-04-20T10:51:39.968Z,12.05
2019-04-20T10:53:44.517Z,20.27
2019-04-20T10:55:49.468Z,17.40
2019-04-20T10:57:53.942Z,16.73
2019-04-20T10:59:57.844Z,15.13
2019-04-20T11:02:01.734Z,14.18
2019-04-20T11:04:06.065Z,14.78
2019-04-20T11:06:11.028Z,14.78
2019-04-20T11:08:15.312Z,28.47
2019-04-20T11:10:25.733Z,16.12
2019-04-20T11:12:26.500Z,12.58
2019-04-20T11:14:34.581Z,16.12
2019-04-20T11:16:36.216Z,13.15
2019-04-20T11:18:40.264Z,16.65
2019-04-20T11:20:44.051Z,12.13
2019-04-20T11:22:48.517Z,13.50
2019-04-20T11:24:52.707Z,11.30
2019-04-20T11:26:56.704Z,11.55
2019-04-20T11:29:02.055Z,11.00
2019-04-20T11:31:06.255Z,16.67
2019-04-20T11:33:10.115Z,15.00
2019-04-20T11:35:23.234Z,13.43
2019-04-20T11:37:21.256Z,12.95
2019-04-20T11:39:25.373Z,13.72
2019-04-20T11:41:32.305Z,13.20
2019-04-20T11:43:35.683Z,18.17
2019-04-20T11:45:40.576Z,13.43
2019-04-20T11:47:45.517Z,14.90
2019-04-20T11:49:49.460Z,11.85
2019-04-20T11:51:53.455Z,9.55
2019-04-20T11:53:58.442Z,12.25
2019-04-20T11:56:02.553Z,13.48
2019-04-20T11:58:07.969Z,12.33
2019-04-20T12:00:15.495Z,16.15
2019-04-20T12:02:35.495Z,12.10
2019-04-20T12:04:49.095Z,13.88
2019-04-20T12:06:46.637Z,14.50
2019-04-20T12:08:50.971Z,13.93
2019-04-20T12:10:59.511Z,11.40
2019-04-20T12:13:01.797Z,12.78
2019-04-20T12:15:06.923Z,13.58
2019-04-20T12:17:11.534Z,12.37
2019-04-20T12:19:18.660Z,10.10
2019-04-20T12:21:23.128Z,14.60
2019-04-20T12:23:28.544Z,13.88
2019-04-20T12:25:35.891Z,15.72
2019-04-20T12:27:41.975Z,10.10
2019-04-20T12:29:45.834Z,9.48
2019-04-20T12:31:56.315Z,11.45
2019-04-20T12:33:58.481Z,10.13
2019-04-20T12:36:02.581Z,11.35
2019-04-20T12:38:10.493Z,12.95
2019-04-20T12:40:14.306Z,13.70
2019-04-20T12:42:18.988Z,9.28
2019-04-20T12:44:23.675Z,11.60
2019-04-20T12:46:32.074Z,13.32
2019-04-20T12:48:37.606Z,11.35
2019-04-20T12:50:41.597Z,9.88
2019-04-20T12:52:46.254Z,13.53
2019-04-20T12:54:50.515Z,20.72
2019-04-20T12:56:54.411Z,13.30
2019-04-20T12:58:59.792Z,14.70
2019-04-20T13:01:04.507Z,12.43
2019-04-20T13:03:09.524Z,9.83
2019-04-20T13:05:15.396Z,8.25
2019-04-20T13:07:19.671Z,14.38
2019-04-20T13:09:28.879Z,13.43
2019-04-20T13:11:46.256Z,9.10
2019-04-20T13:13:48.262Z,10.00
2019-04-20T13:15:54.381Z,9.45
2019-04-20T13:18:01.116Z,10.25
2019-04-20T13:20:07.903Z,10.28
2019-04-20T13:22:13.000Z,10.82
2019-04-20T13:24:18.626Z,11.85
2019-04-20T13:26:22.894Z,13.55
2019-04-20T13:28:30.711Z,8.65
2019-04-20T13:30:35.530Z,11.08
2019-04-20T13:32:39.600Z,12.37
2019-04-20T13:34:44.522Z,10.28
2019-04-20T13:36:50.402Z,11.28
2019-04-20T13:38:56.383Z,10.75
2019-04-20T13:41:01.905Z,10.58
2019-04-20T13:43:06.076Z,11.28
2019-04-20T13:45:10.738Z,11.68
2019-04-20T13:47:14.953Z,11.05
2019-04-20T13:49:19.125Z,14.68
2019-04-20T13:51:23.114Z,15.75
2019-04-20T13:53:27.511Z,10.80
2019-04-20T13:55:31.895Z,12.78
2019-04-20T13:57:37.954Z,10.90
2019-04-20T13:59:46.525Z,10.63
2019-04-20T14:02:04.643Z,10.00
2019-04-20T14:04:16.805Z,10.40
2019-04-20T14:06:20.834Z,11.30
2019-04-20T14:08:27.375Z,10.25
2019-04-20T14:10:31.551Z,12.00
2019-04-20T14:12:39.035Z,12.88
2019-04-20T14:14:41.374Z,10.55
2019-04-20T14:16:45.519Z,17.65
2019-04-20T14:18:49.419Z,10.60
2019-04-20T14:20:56.274Z,15.23
2019-04-20T14:23:01.029Z,9.40
2019-04-20T14:25:06.937Z,10.58
2019-04-20T14:27:11.031Z,15.32
2019-04-20T14:29:14.929Z,10.43
2019-04-20T14:31:19.593Z,12.68
2019-04-20T14:33:24.229Z,12.55
2019-04-20T14:35:29.205Z,12.60
2019-04-20T14:37:33.183Z,9.43
2019-04-20T14:39:38.271Z,10.40
2019-04-20T14:41:42.392Z,15.38
2019-04-20T14:43:46.973Z,11.03
2019-04-20T14:45:50.889Z,11.25
2019-04-20T14:47:54.834Z,10.82
2019-04-20T14:50:02.601Z,18.52
2019-04-20T14:52:08.246Z,10.85
2019-04-20T14:54:13.778Z,10.65
2019-04-20T14:56:17.812Z,12.50
2019-04-20T14:58:41.592Z,9.18
2019-04-20T15:02:52.372Z,13.10
2019-04-20T15:04:56.986Z,11.22
2019-04-20T15:07:02.374Z,12.55
2019-04-20T15:09:08.833Z,7.65
2019-04-20T15:11:12.920Z,14.68
2019-04-20T15:13:17.051Z,14.50
2019-04-20T15:15:21.217Z,11.30
2019-04-20T15:17:29.780Z,10.98
2019-04-20T15:19:39.700Z,9.70
2019-04-20T15:21:45.487Z,11.85
2019-04-20T15:23:49.351Z,11.70
2019-04-20T15:25:54.726Z,13.13
2019-04-20T15:28:00.468Z,11.28
2019-04-20T15:30:08.642Z,9.98
2019-04-20T15:32:13.233Z,9.88
2019-04-20T15:34:17.378Z,11.28
2019-04-20T15:36:22.198Z,12.35
2019-04-20T15:38:27.135Z,19.42
2019-04-20T15:40:31.551Z,8.30
2019-04-20T15:42:47.862Z,9.65
2019-04-20T15:44:40.892Z,10.00
2019-04-20T15:46:45.602Z,7.33
2019-04-20T15:48:50.261Z,6.05
2019-04-20T15:50:56.207Z,15.30
2019-04-20T15:53:01.889Z,8.08
2019-04-20T15:55:15.752Z,7.17
2019-04-20T15:57:16.838Z,8.35
2019-04-20T15:59:17.888Z,8.73
2019-04-20T16:01:23.333Z,10.43
2019-04-20T16:03:32.918Z,9.95
2019-04-20T16:05:56.469Z,6.47
2019-04-20T16:08:03.975Z,5.10
2019-04-20T16:10:09.415Z,6.78
2019-04-20T16:12:13.472Z,7.05
2019-04-20T16:14:17.552Z,6.70
2019-04-20T16:16:23.641Z,7.42
2019-04-20T16:18:30.619Z,6.78
2019-04-20T16:20:47.274Z,7.92
2019-04-20T16:22:40.599Z,8.18
2019-04-20T16:24:46.881Z,7.50
2019-04-20T16:26:55.709Z,6.20
2019-04-20T16:28:59.801Z,6.95
2019-04-20T16:31:06.999Z,8.95
2019-04-20T16:33:10.457Z,7.62
2019-04-20T16:35:14.704Z,9.18
2019-04-20T16:37:19.919Z,8.95
2019-04-20T16:39:24.663Z,10.03
2019-04-20T16:41:28.831Z,9.40
2019-04-20T16:43:37.362Z,8.83
2019-04-20T16:45:39.160Z,7.50
2019-04-20T16:47:44.160Z,8.70
2019-04-20T16:49:48.797Z,8.38
2019-04-20T16:51:52.878Z,6.95
2019-04-20T16:53:56.710Z,6.65
2019-04-20T16:56:01.168Z,6.50
2019-04-20T16:58:05.945Z,10.23
2019-04-20T17:00:11.441Z,10.65
2019-04-20T17:02:17.440Z,10.93
2019-04-20T17:04:24.024Z,9.33
2019-04-20T17:06:27.001Z,6.92
2019-04-20T17:08:31.171Z,5.78
2019-04-20T17:10:35.177Z,10.10
2019-04-20T17:12:41.803Z,13.15
2019-04-20T17:14:47.451Z,15.08
2019-04-20T17:16:51.585Z,10.63
2019-04-20T17:18:55.492Z,9.03
2019-04-20T17:21:07.311Z,8.98
2019-04-20T17:23:07.410Z,9.00
2019-04-20T17:25:12.296Z,17.67
2019-04-20T17:27:37.075Z,10.23
2019-04-20T17:29:50.086Z,11.63
2019-04-20T17:32:13.786Z,8.18
2019-04-20T17:34:36.361Z,10.32
2019-04-20T17:36:27.768Z,9.68
2019-04-20T17:38:34.717Z,7.22
2019-04-20T17:40:56.391Z,5.65
2019-04-20T17:42:50.883Z,6.62
2019-04-20T17:44:57.942Z,15.00
2019-04-20T17:47:03.800Z,6.87
2019-04-20T17:49:14.505Z,5.17
2019-04-20T17:51:23.414Z,13.50
2019-04-20T17:53:24.017Z,6.75
2019-04-20T17:55:28.435Z,8.48
2019-04-20T17:57:23.668Z,9.68
2019-04-20T17:59:28.388Z,14.95
2019-04-20T18:01:49.792Z,6.67
2019-04-20T18:04:16.683Z,6.55
2019-04-20T18:06:12.686Z,6.10
2019-04-20T18:08:25.087Z,6.08
2019-04-20T18:10:23.238Z,6.50
2019-04-20T18:12:20.764Z,9.75
2019-04-20T18:14:31.520Z,10.63
2019-04-20T18:16:49.558Z,6.20
2019-04-20T18:18:55.310Z,10.20
2019-04-20T18:21:03.276Z,8.58
2019-04-20T18:23:08.589Z,6.92
2019-04-20T18:27:37.370Z,7.65
2019-04-20T18:29:40.653Z,7.35
2019-04-20T18:31:35.393Z,9.28
2019-04-20T18:33:42.479Z,8.23
2019-04-20T18:35:48.927Z,8.15
2019-04-20T18:37:59.283Z,8.88
2019-04-20T18:40:05.157Z,9.60
2019-04-20T18:42:14.261Z,10.38
2019-04-20T18:44:10.635Z,10.90
2019-04-20T18:46:33.167Z,10.68
2019-04-20T18:48:46.546Z,8.83
2019-04-20T18:50:34.122Z,10.58
2019-04-20T18:52:31.711Z,8.00
2019-04-20T18:54:40.624Z,9.23
2019-04-20T18:56:45.831Z,10.18
2019-04-20T18:58:47.025Z,12.47
2019-04-20T19:00:51.909Z,10.70
2019-04-20T19:03:02.731Z,12.05
2019-04-20T19:05:04.842Z,11.83
2019-04-20T19:07:07.966Z,11.38
2019-04-20T19:09:15.294Z,12.53
2019-04-20T19:11:21.268Z,13.30
2019-04-20T19:13:34.189Z,10.93
2019-04-20T19:15:55.190Z,10.32
2019-04-20T19:17:58.155Z,11.75
2019-04-20T19:19:53.290Z,12.07
2019-04-20T19:21:56.089Z,9.50
2019-04-20T19:24:07.747Z,10.85
2019-04-20T19:26:11.945Z,12.23
2019-04-20T19:28:14.447Z,10.70
2019-04-20T19:30:27.579Z,16.70
2019-04-20T19:32:36.884Z,12.88
2019-04-20T19:34:41.844Z,12.90
2019-04-20T19:36:41.459Z,15.32
2019-04-20T19:38:52.264Z,13.13
2019-04-20T19:40:54.554Z,11.97
2019-04-20T19:43:07.003Z,11.88
2019-04-20T19:45:18.698Z,11.88
2019-04-20T19:47:24.937Z,10.53
2019-04-20T19:49:19.673Z,11.68
2019-04-20T19:51:32.972Z,12.43
2019-04-20T19:53:37.932Z,10.03
2019-04-20T19:55:37.862Z,13.22
2019-04-20T19:57:45.134Z,10.55
2019-04-20T19:59:40.398Z,10.45
2019-04-20T20:01:42.055Z,10.15
2019-04-20T20:03:48.339Z,11.57
2019-04-20T20:05:53.846Z,8.95
2019-04-20T20:08:06.424Z,10.72
2019-04-20T20:10:12.685Z,14.98
2019-04-20T20:12:21.308Z,12.60
2019-04-20T20:14:36.524Z,14.43
2019-04-20T20:17:00.155Z,13.95
2019-04-20T20:19:01.448Z,12.70
2019-04-20T20:21:15.177Z,11.93
2019-04-20T20:23:14.100Z,9.53
2019-04-20T20:25:29.621Z,14.90
2019-04-20T20:27:46.957Z,12.37
2019-04-20T20:29:55.884Z,13.85
2019-04-20T20:32:09.997Z,12.15
2019-04-20T20:34:14.571Z,12.53
2019-04-20T20:36:20.182Z,16.42
2019-04-20T20:38:35.238Z,11.57
2019-04-20T20:40:43.534Z,12.65
2019-04-20T20:42:58.144Z,12.10
2019-04-20T20:45:06.982Z,15.80
2019-04-20T20:47:21.872Z,11.30
2019-04-20T20:49:32.984Z,12.93
2019-04-20T20:51:46.959Z,10.93
2019-04-20T20:53:42.833Z,14.23
2019-04-20T20:55:42.855Z,13.45
2019-04-20T20:57:56.260Z,14.65
2019-04-20T21:00:03.609Z,16.25
2019-04-20T21:02:12.715Z,13.55
2019-04-20T21:04:15.368Z,14.95
2019-04-20T21:06:24.443Z,14.13
2019-04-20T21:08:36.212Z,13.10
2019-04-20T21:10:44.110Z,12.05
2019-04-20T21:12:56.461Z,13.50
2019-04-20T21:15:08.175Z,13.83
2019-04-20T21:17:17.898Z,14.90
2019-04-20T21:19:43.702Z,16.23
2019-04-20T21:21:41.305Z,16.20
2019-04-20T21:23:48.083Z,15.93
2019-04-20T21:26:01.147Z,18.67
2019-04-20T21:28:06.885Z,14.50
2019-04-20T21:30:18.493Z,17.75
2019-04-20T21:32:26.145Z,16.80
2019-04-20T21:34:31.197Z,17.23
2019-04-20T21:36:36.860Z,19.67
2019-04-20T21:38:43.013Z,17.40
2019-04-20T21:40:49.369Z,20.48
2019-04-20T21:42:58.600Z,15.38
2019-04-20T21:45:09.503Z,19.15
2019-04-20T21:47:05.153Z,17.62
2019-04-20T21:49:25.308Z,17.92
2019-04-20T21:51:29.348Z,21.00
2019-04-20T21:53:26.897Z,17.20
2019-04-20T21:55:27.848Z,19.12
2019-04-20T21:57:39.076Z,19.73
2019-04-20T21:59:44.424Z,19.85
2019-04-20T22:01:55.085Z,21.50
2019-04-20T22:03:50.274Z,22.55
2019-04-20T22:06:06.852Z,27.30
2019-04-20T22:08:15.893Z,29.20
2019-04-20T22:10:21.753Z,27.17
2019-04-20T22:12:23.614Z,25.90
2019-04-20T22:14:31.575Z,40.10
2019-04-20T22:16:38.935Z,34.95
2019-04-20T22:18:48.451Z,39.30
2019-04-20T22:21:01.723Z,38.15
2019-04-20T22:23:02.659Z,40.08
2019-04-20T22:25:08.046Z,31.37
2019-04-20T22:27:09.874Z,33.48
2019-04-20T22:29:10.284Z,28.92
2019-04-20T22:31:14.263Z,35.75
2019-04-20T22:33:23.703Z,34.60
2019-04-20T22:35:26.149Z,29.00
2019-04-20T22:37:35.309Z,36.40
2019-04-20T22:39:49.890Z,36.85
2019-04-20T22:41:58.629Z,37.35
2019-04-20T22:43:56.906Z,29.32
2019-04-20T22:46:03.212Z,34.43
2019-04-20T22:48:10.993Z,30.68
2019-04-20T22:50:29.015Z,30.17
2019-04-20T22:52:34.843Z,29.42
2019-04-20T22:54:39.749Z,28.32
2019-04-20T22:56:44.065Z,24.67
2019-04-20T22:58:48.828Z,30.27
2019-04-20T23:00:52.020Z,25.27
2019-04-20T23:02:50.917Z,31.15
2019-04-20T23:04:55.244Z,30.37
2019-04-20T23:07:00.828Z,26.50
2019-04-20T23:09:10.967Z,25.35
2019-04-20T23:11:17.955Z,24.52
2019-04-20T23:13:23.249Z,24.92
2019-04-20T23:15:24.188Z,28.87
2019-04-20T23:17:35.944Z,25.68
2019-04-20T23:19:44.887Z,23.52
2019-04-20T23:21:48.522Z,20.70
2019-04-20T23:23:45.799Z,20.65
2019-04-20T23:25:51.103Z,20.12
2019-04-20T23:28:00.570Z,22.55
2019-04-20T23:30:03.628Z,18.15
2019-04-20T23:32:09.849Z,21.48
2019-04-20T23:34:16.143Z,22.42
2019-04-20T23:36:19.315Z,24.55
2019-04-20T23:38:24.679Z,24.60
2019-04-20T23:40:29.890Z,19.70
2019-04-20T23:42:39.227Z,20.30
2019-04-20T23:44:45.836Z,22.80
2019-04-20T23:47:01.194Z,17.82
2019-04-20T23:49:25.082Z,21.48
2019-04-20T23:51:49.857Z,21.95
2019-04-20T23:53:46.783Z,26.68
2019-04-20T23:55:35.965Z,22.95
2019-04-20T23:57:40.149Z,21.37
2019-04-20T23:59:46.164Z,26.48
